createdAt,value
2018-02-11T00:01:12.223Z,62.42
2018-02-11T00:03:40.390Z,59.75
2018-02-11T00:06:08.339Z,65.92
2018-02-11T00:08:36.343Z,60.65
2018-02-11T00:11:04.246Z,59.98
2018-02-11T00:13:32.150Z,58.85
2018-02-11T00:16:00.147Z,64.24
2018-02-11T00:18:28.150Z,58.67
2018-02-11T00:20:56.102Z,59.39
2018-02-11T00:23:24.074Z,60.85
2018-02-11T00:25:52.018Z,59.49
2018-02-11T00:28:19.942Z,59.73
2018-02-11T00:30:48.094Z,59.80
2018-02-11T00:33:16.066Z,65.85
2018-02-11T00:35:44.018Z,58.46
2018-02-11T00:38:11.951Z,57.95
2018-02-11T00:40:39.949Z,60.98
2018-02-11T00:43:07.902Z,64.71
2018-02-11T00:45:35.814Z,61.55
2018-02-11T00:48:03.810Z,59.22
2018-02-11T00:50:31.739Z,58.05
2018-02-11T00:52:59.643Z,57.16
2018-02-11T00:55:27.635Z,57.23
2018-02-11T00:57:55.632Z,57.64
2018-02-11T01:00:23.581Z,61.66
2018-02-11T01:02:51.549Z,58.85
2018-02-11T01:05:19.507Z,57.60
2018-02-11T01:07:47.450Z,61.47
2018-02-11T01:10:15.451Z,57.72
2018-02-11T01:12:43.372Z,57.13
2018-02-11T01:15:11.367Z,57.63
2018-02-11T01:17:39.295Z,55.94
2018-02-11T01:20:07.649Z,67.38
2018-02-11T01:22:35.608Z,55.45
2018-02-11T01:25:03.555Z,56.11
2018-02-11T01:27:31.518Z,56.71
2018-02-11T01:29:59.490Z,57.65
2018-02-11T01:32:27.738Z,60.75
2018-02-11T01:34:55.694Z,56.46
2018-02-11T01:37:23.605Z,61.77
2018-02-11T01:39:51.644Z,58.04
2018-02-11T01:42:19.542Z,61.24
2018-02-11T01:44:47.503Z,58.71
2018-02-11T01:47:15.512Z,60.63
2018-02-11T01:49:43.484Z,58.73
2018-02-11T01:52:11.479Z,58.80
2018-02-11T01:54:39.456Z,70.58
2018-02-11T01:57:07.378Z,59.93
2018-02-11T01:59:35.383Z,59.17
2018-02-11T02:02:03.393Z,59.35
2018-02-11T02:04:31.314Z,59.13
2018-02-11T02:06:59.250Z,63.31
2018-02-11T02:09:27.325Z,59.26
2018-02-11T02:11:55.169Z,61.32
2018-02-11T02:14:23.006Z,60.50
2018-02-11T02:16:50.928Z,59.72
2018-02-11T02:19:18.892Z,60.17
2018-02-11T02:21:46.924Z,60.21
2018-02-11T02:24:14.906Z,60.44
2018-02-11T02:26:42.855Z,59.47
2018-02-11T02:29:10.830Z,61.55
2018-02-11T02:31:38.832Z,59.29
2018-02-11T02:34:07.230Z,59.79
2018-02-11T02:36:35.238Z,59.79
2018-02-11T02:39:03.892Z,60.35
2018-02-11T02:41:31.916Z,66.57
2018-02-11T02:43:59.955Z,58.84
2018-02-11T02:46:27.842Z,57.99
2018-02-11T02:48:55.850Z,67.36
2018-02-11T02:51:23.751Z,57.51
2018-02-11T02:53:51.710Z,66.64
2018-02-11T02:56:19.718Z,57.26
2018-02-11T02:58:47.706Z,57.45
2018-02-11T03:01:15.702Z,57.72
2018-02-11T03:03:43.675Z,58.68
2018-02-11T03:06:11.595Z,57.99
2018-02-11T03:08:39.794Z,59.25
2018-02-11T03:11:07.762Z,57.52
2018-02-11T03:13:35.691Z,58.26
2018-02-11T03:16:03.671Z,64.16
2018-02-11T03:18:31.618Z,56.97
2018-02-11T03:20:59.541Z,56.44
2018-02-11T03:23:27.525Z,57.58
2018-02-11T03:25:55.496Z,57.08
2018-02-11T03:28:23.466Z,63.82
2018-02-11T03:30:51.421Z,60.76
2018-02-11T03:33:19.361Z,62.51
2018-02-11T03:35:47.575Z,58.11
2018-02-11T03:38:15.569Z,58.12
2018-02-11T03:40:43.563Z,59.00
2018-02-11T03:43:11.582Z,60.10
2018-02-11T03:45:39.558Z,60.20
2018-02-11T03:48:07.462Z,59.75
2018-02-11T03:50:35.466Z,62.29
2018-02-11T03:53:03.434Z,62.38
2018-02-11T03:55:31.403Z,63.74
2018-02-11T03:57:59.353Z,62.72
2018-02-11T04:00:27.334Z,63.42
2018-02-11T04:02:55.287Z,69.09
2018-02-11T04:05:23.234Z,64.59
2018-02-11T04:07:51.151Z,66.21
2018-02-11T04:10:19.119Z,64.55
2018-02-11T04:12:47.509Z,65.34
2018-02-11T04:15:15.426Z,64.94
2018-02-11T04:17:43.418Z,66.20
2018-02-11T04:20:11.310Z,65.50
2018-02-11T04:22:39.258Z,65.58
2018-02-11T04:25:07.247Z,67.00
2018-02-11T04:27:35.330Z,65.47
2018-02-11T04:30:03.414Z,65.53
2018-02-11T04:32:31.366Z,67.19
2018-02-11T04:34:59.339Z,67.48
2018-02-11T04:37:27.632Z,67.32
2018-02-11T04:39:55.510Z,69.30
2018-02-11T04:42:23.486Z,66.77
2018-02-11T04:44:51.421Z,66.72
2018-02-11T04:47:20.625Z,67.02
2018-02-11T04:49:48.565Z,68.97
2018-02-11T04:52:16.510Z,69.32
2018-02-11T04:54:44.518Z,66.46
2018-02-11T04:57:12.463Z,66.99
2018-02-11T04:59:40.386Z,66.95
2018-02-11T05:02:08.362Z,67.72
2018-02-11T05:04:36.274Z,76.98
2018-02-11T05:07:04.282Z,68.09
2018-02-11T05:09:32.242Z,66.80
2018-02-11T05:12:00.226Z,69.79
2018-02-11T05:14:28.237Z,68.18
2018-02-11T05:16:56.243Z,73.22
2018-02-11T05:19:24.126Z,67.54
2018-02-11T05:21:52.078Z,65.57
2018-02-11T05:24:20.026Z,63.74
2018-02-11T05:26:47.999Z,69.31
2018-02-11T05:29:15.922Z,63.56
2018-02-11T05:31:43.866Z,70.01
2018-02-11T05:34:11.806Z,63.22
2018-02-11T05:36:39.798Z,67.36
2018-02-11T05:39:08.083Z,66.50
2018-02-11T05:41:36.056Z,60.78
2018-02-11T05:44:04.287Z,61.26
2018-02-11T05:46:32.306Z,62.31
2018-02-11T05:49:00.333Z,62.50
2018-02-11T05:51:28.322Z,70.31
2018-02-11T05:53:56.305Z,60.68
2018-02-11T05:56:24.274Z,59.87
2018-02-11T05:58:52.303Z,61.11
2018-02-11T06:01:20.220Z,60.90
2018-02-11T06:03:48.146Z,59.49
2018-02-11T06:06:16.101Z,61.97
2018-02-11T06:08:44.093Z,61.19
2018-02-11T06:11:12.102Z,61.85
2018-02-11T06:13:40.102Z,61.06
2018-02-11T06:16:08.164Z,59.91
2018-02-11T06:18:36.458Z,61.08
2018-02-11T06:21:04.643Z,62.26
2018-02-11T06:23:33.238Z,61.66
2018-02-11T06:26:01.778Z,61.43
2018-02-11T06:28:30.170Z,60.62
2018-02-11T06:30:58.758Z,67.28
2018-02-11T06:33:27.015Z,63.62
2018-02-11T06:35:55.415Z,59.75
2018-02-11T06:38:23.993Z,65.24
2018-02-11T06:40:52.375Z,60.93
2018-02-11T06:43:20.855Z,62.00
2018-02-11T06:45:49.052Z,58.82
2018-02-11T06:48:17.508Z,58.62
2018-02-11T06:50:45.986Z,63.54
2018-02-11T06:53:14.166Z,58.75
2018-02-11T06:55:42.434Z,59.55
2018-02-11T06:58:10.935Z,58.90
2018-02-11T07:00:39.482Z,56.85
2018-02-11T07:03:07.785Z,56.88
2018-02-11T07:05:36.368Z,55.89
2018-02-11T07:08:04.634Z,56.86
2018-02-11T07:10:32.920Z,57.18
2018-02-11T07:13:01.494Z,56.00
2018-02-11T07:15:29.973Z,54.81
2018-02-11T07:17:58.251Z,54.83
2018-02-11T07:20:26.625Z,54.27
2018-02-11T07:22:54.919Z,56.19
2018-02-11T07:25:22.847Z,55.56
2018-02-11T07:27:50.782Z,55.11
2018-02-11T07:30:18.698Z,54.96
2018-02-11T07:32:46.662Z,53.10
2018-02-11T07:35:14.725Z,54.83
2018-02-11T07:37:43.498Z,55.05
2018-02-11T07:40:11.462Z,54.99
2018-02-11T07:42:39.589Z,55.42
2018-02-11T07:45:07.542Z,54.63
2018-02-11T07:47:35.498Z,54.12
2018-02-11T07:50:03.489Z,54.05
2018-02-11T07:52:31.514Z,52.12
2018-02-11T07:54:59.474Z,53.23
2018-02-11T07:57:27.480Z,53.49
2018-02-11T07:59:55.497Z,52.96
2018-02-11T08:02:23.438Z,52.88
2018-02-11T08:04:51.390Z,52.05
2018-02-11T08:07:19.374Z,50.69
2018-02-11T08:09:47.390Z,51.32
2018-02-11T08:12:15.323Z,53.22
2018-02-11T08:14:43.267Z,52.23
2018-02-11T08:17:11.386Z,52.75
2018-02-11T08:19:39.388Z,52.97
2018-02-11T08:22:07.382Z,54.66
2018-02-11T08:24:35.439Z,55.71
2018-02-11T08:27:03.443Z,55.12
2018-02-11T08:29:31.418Z,58.34
2018-02-11T08:31:59.378Z,55.82
2018-02-11T08:34:27.361Z,57.73
2018-02-11T08:36:55.324Z,57.28
2018-02-11T08:39:23.422Z,54.66
2018-02-11T08:41:51.438Z,56.79
2018-02-11T08:44:19.870Z,66.46
2018-02-11T08:46:48.402Z,58.47
2018-02-11T08:49:16.386Z,60.45
2018-02-11T08:51:44.364Z,61.10
2018-02-11T08:54:12.412Z,61.74
2018-02-11T08:56:40.370Z,63.08
2018-02-11T08:59:08.437Z,64.87
2018-02-11T09:01:36.450Z,65.18
2018-02-11T09:04:04.565Z,66.15
2018-02-11T09:06:32.524Z,63.18
2018-02-11T09:09:00.860Z,64.47
2018-02-11T09:11:29.406Z,64.62
2018-02-11T09:13:57.390Z,64.53
2018-02-11T09:16:25.347Z,64.58
2018-02-11T09:18:53.268Z,64.01
2018-02-11T09:21:21.282Z,64.93
2018-02-11T09:23:49.271Z,65.06
2018-02-11T09:26:17.402Z,63.70
2018-02-11T09:28:45.367Z,64.63
2018-02-11T09:31:13.351Z,64.16
2018-02-11T09:33:41.349Z,64.91
2018-02-11T09:36:09.421Z,64.53
2018-02-11T09:38:37.353Z,63.23
2018-02-11T09:41:05.401Z,63.51
2018-02-11T09:43:33.382Z,63.48
2018-02-11T09:46:01.695Z,63.84
2018-02-11T09:48:29.654Z,62.48
2018-02-11T09:50:57.578Z,63.50
2018-02-11T09:53:25.535Z,62.28
2018-02-11T09:55:53.510Z,63.19
2018-02-11T09:58:21.498Z,64.37
2018-02-11T10:00:49.559Z,64.89
2018-02-11T10:03:17.748Z,64.07
2018-02-11T10:05:46.131Z,62.62
2018-02-11T10:08:14.726Z,63.38
2018-02-11T10:10:43.109Z,62.53
2018-02-11T10:13:11.464Z,62.83
2018-02-11T10:15:39.962Z,64.66
2018-02-11T10:18:08.554Z,64.35
2018-02-11T10:20:36.543Z,64.23
2018-02-11T10:23:04.855Z,62.00
2018-02-11T10:25:33.062Z,61.08
2018-02-11T10:28:01.546Z,60.10
2018-02-11T10:30:29.822Z,59.30
2018-02-11T10:32:58.104Z,59.68
2018-02-11T10:35:26.067Z,59.31
2018-02-11T10:37:54.107Z,60.50
2018-02-11T10:40:22.132Z,61.63
2018-02-11T10:42:50.117Z,60.72
2018-02-11T10:45:18.146Z,63.95
2018-02-11T10:47:46.870Z,62.97
2018-02-11T10:50:15.514Z,63.70
2018-02-11T10:52:43.782Z,61.28
2018-02-11T10:55:12.165Z,60.81
2018-02-11T10:57:40.629Z,59.21
2018-02-11T11:00:08.821Z,59.80
2018-02-11T11:02:37.098Z,58.93
2018-02-11T11:05:05.690Z,59.63
2018-02-11T11:07:34.297Z,60.94
2018-02-11T11:10:03.255Z,58.17
2018-02-11T11:12:31.791Z,60.60
2018-02-11T11:14:59.778Z,60.74
2018-02-11T11:17:27.729Z,57.74
2018-02-11T11:19:55.862Z,57.48
2018-02-11T11:22:23.912Z,57.90
2018-02-11T11:24:51.878Z,55.82
2018-02-11T11:27:19.935Z,54.70
2018-02-11T11:29:47.906Z,57.02
2018-02-11T11:32:15.837Z,54.89
2018-02-11T11:34:43.883Z,54.01
2018-02-11T11:37:11.929Z,53.60
2018-02-11T11:39:39.913Z,51.43
2018-02-11T11:42:07.890Z,55.86
2018-02-11T11:44:35.819Z,48.81
2018-02-11T11:47:03.863Z,50.50
2018-02-11T11:49:32.797Z,49.57
2018-02-11T11:52:00.747Z,50.88
2018-02-11T11:54:28.704Z,50.54
2018-02-11T11:56:56.712Z,47.86
2018-02-11T11:59:24.726Z,48.55
2018-02-11T12:01:52.758Z,44.76
2018-02-11T12:04:20.717Z,47.94
2018-02-11T12:06:48.689Z,44.12
2018-02-11T12:09:16.633Z,45.58
2018-02-11T12:11:44.630Z,42.87
2018-02-11T12:14:12.602Z,42.49
2018-02-11T12:16:40.587Z,44.18
2018-02-11T12:19:08.497Z,44.43
2018-02-11T12:21:36.454Z,44.64
2018-02-11T12:24:04.466Z,43.72
2018-02-11T12:26:32.419Z,46.57
2018-02-11T12:29:00.394Z,43.66
2018-02-11T12:31:28.427Z,48.03
2018-02-11T12:33:56.411Z,44.16
2018-02-11T12:36:24.419Z,43.70
2018-02-11T12:38:52.443Z,50.86
2018-02-11T12:41:20.397Z,48.64
2018-02-11T12:43:48.321Z,47.08
2018-02-11T12:46:16.349Z,45.28
2018-02-11T12:48:44.470Z,49.19
2018-02-11T12:51:13.690Z,45.87
2018-02-11T12:53:41.687Z,48.02
2018-02-11T12:56:09.694Z,48.58
2018-02-11T12:58:37.717Z,45.94
2018-02-11T13:01:05.682Z,53.78
2018-02-11T13:03:33.650Z,51.19
2018-02-11T13:06:01.632Z,45.76
2018-02-11T13:08:29.562Z,48.80
2018-02-11T13:10:57.479Z,47.30
2018-02-11T13:13:25.455Z,49.17
2018-02-11T13:15:53.459Z,51.85
2018-02-11T13:18:21.447Z,51.82
2018-02-11T13:20:49.410Z,46.26
2018-02-11T13:23:17.327Z,51.21
2018-02-11T13:25:45.470Z,47.91
2018-02-11T13:28:13.399Z,45.40
2018-02-11T13:30:41.392Z,46.97
2018-02-11T13:33:09.428Z,46.15
2018-02-11T13:35:37.430Z,47.23
2018-02-11T13:38:05.444Z,46.99
2018-02-11T13:40:33.415Z,48.44
2018-02-11T13:43:01.424Z,47.47
2018-02-11T13:45:29.392Z,47.31
2018-02-11T13:47:57.354Z,47.38
2018-02-11T13:50:25.391Z,47.01
2018-02-11T13:52:53.904Z,46.56
2018-02-11T13:55:22.036Z,47.22
2018-02-11T13:57:50.035Z,46.80
2018-02-11T14:00:17.998Z,46.59
2018-02-11T14:02:46.015Z,47.71
2018-02-11T14:05:13.963Z,47.07
2018-02-11T14:07:42.025Z,46.75
2018-02-11T14:10:09.986Z,46.39
2018-02-11T14:12:38.027Z,46.67
2018-02-11T14:15:06.599Z,47.19
2018-02-11T14:17:34.690Z,47.12
2018-02-11T14:20:02.699Z,48.11
2018-02-11T14:22:30.655Z,48.51
2018-02-11T14:24:58.578Z,48.08
2018-02-11T14:27:26.707Z,47.74
2018-02-11T14:29:54.763Z,47.25
2018-02-11T14:32:22.747Z,47.84
2018-02-11T14:34:50.722Z,47.21
2018-02-11T14:37:18.776Z,47.86
2018-02-11T14:39:46.827Z,49.69
2018-02-11T14:42:14.860Z,49.55
2018-02-11T14:44:42.842Z,49.59
2018-02-11T14:47:10.868Z,49.81
2018-02-11T14:49:38.794Z,51.14
2018-02-11T14:52:06.807Z,49.68
2018-02-11T14:54:35.044Z,49.47
2018-02-11T14:57:03.037Z,48.82
2018-02-11T14:59:31.062Z,49.71
2018-02-11T15:01:59.086Z,49.45
2018-02-11T15:04:27.083Z,53.43
2018-02-11T15:06:55.054Z,51.50
2018-02-11T15:09:23.052Z,50.73
2018-02-11T15:11:51.049Z,51.54
2018-02-11T15:14:19.046Z,51.08
2018-02-11T15:16:47.078Z,52.20
2018-02-11T15:19:15.049Z,53.94
2018-02-11T15:21:43.022Z,56.44
2018-02-11T15:24:11.039Z,54.19
2018-02-11T15:26:39.058Z,54.24
2018-02-11T15:29:07.040Z,53.04
2018-02-11T15:31:34.999Z,52.79
2018-02-11T15:34:03.092Z,54.21
2018-02-11T15:36:31.086Z,54.23
2018-02-11T15:38:59.050Z,52.83
2018-02-11T15:41:27.036Z,53.58
2018-02-11T15:43:55.041Z,53.90
2018-02-11T15:46:22.975Z,53.99
2018-02-11T15:48:50.899Z,53.98
2018-02-11T15:51:18.870Z,53.40
2018-02-11T15:53:46.834Z,54.22
2018-02-11T15:56:15.173Z,53.27
2018-02-11T15:58:43.247Z,53.44
2018-02-11T16:01:11.202Z,53.38
2018-02-11T16:03:39.163Z,52.63
2018-02-11T16:06:07.126Z,52.85
2018-02-11T16:08:35.155Z,53.62
2018-02-11T16:11:03.172Z,54.32
2018-02-11T16:13:31.111Z,53.96
2018-02-11T16:15:59.254Z,53.61
2018-02-11T16:18:27.242Z,55.33
2018-02-11T16:20:55.240Z,55.62
2018-02-11T16:23:23.244Z,54.62
2018-02-11T16:25:51.250Z,54.56
2018-02-11T16:28:19.178Z,55.07
2018-02-11T16:30:47.316Z,54.41
2018-02-11T16:33:15.252Z,54.98
2018-02-11T16:35:43.334Z,54.88
2018-02-11T16:38:11.265Z,55.26
2018-02-11T16:40:39.206Z,55.93
2018-02-11T16:43:07.190Z,55.56
2018-02-11T16:45:37.387Z,55.80
2018-02-11T16:48:05.433Z,56.31
2018-02-11T16:50:33.439Z,56.55
2018-02-11T16:53:01.426Z,56.52
2018-02-11T16:55:29.472Z,56.83
2018-02-11T16:57:57.766Z,58.59
2018-02-11T17:00:25.734Z,57.10
2018-02-11T17:02:53.747Z,56.34
2018-02-11T17:05:21.778Z,55.25
2018-02-11T17:07:49.842Z,54.76
2018-02-11T17:10:17.866Z,54.97
2018-02-11T17:12:45.846Z,55.48
2018-02-11T17:15:13.866Z,54.94
2018-02-11T17:17:41.796Z,56.42
2018-02-11T17:20:09.869Z,56.60
2018-02-11T17:22:37.856Z,57.31
2018-02-11T17:25:05.879Z,56.84
2018-02-11T17:27:33.782Z,56.95
2018-02-11T17:30:01.766Z,57.54
2018-02-11T17:32:29.747Z,57.65
2018-02-11T17:34:57.706Z,57.41
2018-02-11T17:37:25.690Z,58.09
2018-02-11T17:39:53.771Z,57.72
2018-02-11T17:42:21.802Z,58.18
2018-02-11T17:44:50.021Z,58.88
2018-02-11T17:47:17.857Z,59.36
2018-02-11T17:49:45.882Z,59.47
2018-02-11T17:52:13.850Z,58.92
2018-02-11T17:54:41.855Z,58.44
2018-02-11T17:57:09.900Z,57.90
2018-02-11T17:59:38.331Z,58.13
2018-02-11T18:02:06.333Z,57.41
2018-02-11T18:04:34.373Z,57.98
2018-02-11T18:07:02.315Z,57.09
2018-02-11T18:09:30.277Z,57.77
2018-02-11T18:11:58.310Z,58.07
2018-02-11T18:14:26.291Z,58.23
2018-02-11T18:16:55.087Z,58.05
2018-02-11T18:19:23.050Z,58.48
2018-02-11T18:21:51.027Z,58.39
2018-02-11T18:24:18.991Z,58.02
2018-02-11T18:26:47.068Z,58.69
2018-02-11T18:29:15.144Z,59.16
2018-02-11T18:31:43.244Z,58.94
2018-02-11T18:34:12.506Z,58.61
2018-02-11T18:36:40.537Z,58.93
2018-02-11T18:39:08.539Z,58.86
2018-02-11T18:41:36.520Z,59.70
2018-02-11T18:44:04.507Z,59.52
2018-02-11T18:46:32.490Z,61.66
2018-02-11T18:49:00.451Z,62.91
2018-02-11T18:51:28.503Z,64.32
2018-02-11T18:53:56.841Z,65.68
2018-02-11T18:56:24.830Z,67.03
2018-02-11T18:58:52.881Z,66.44
2018-02-11T19:01:21.284Z,66.08
2018-02-11T19:03:49.295Z,65.06
2018-02-11T19:06:17.310Z,64.32
2018-02-11T19:08:45.282Z,62.69
2018-02-11T19:11:13.310Z,64.16
2018-02-11T19:13:41.371Z,66.17
2018-02-11T19:16:09.350Z,65.96
2018-02-11T19:18:37.323Z,64.34
2018-02-11T19:21:05.283Z,62.63
2018-02-11T19:23:33.358Z,62.14
2018-02-11T19:26:01.340Z,62.31
2018-02-11T19:28:29.308Z,62.27
2018-02-11T19:30:57.315Z,62.31
2018-02-11T19:33:25.346Z,61.69
2018-02-11T19:35:53.370Z,62.58
2018-02-11T19:38:21.260Z,62.84
2018-02-11T19:40:49.345Z,64.48
2018-02-11T19:43:17.354Z,64.01
2018-02-11T19:45:45.321Z,61.93
2018-02-11T19:48:13.301Z,63.06
2018-02-11T19:50:41.266Z,64.40
2018-02-11T19:53:09.183Z,65.53
2018-02-11T19:55:37.138Z,66.01
2018-02-11T19:58:05.135Z,64.79
2018-02-11T20:00:33.160Z,64.25
2018-02-11T20:03:01.639Z,64.54
2018-02-11T20:05:29.580Z,66.34
2018-02-11T20:07:57.571Z,66.79
2018-02-11T20:10:25.570Z,67.67
2018-02-11T20:12:53.551Z,67.65
2018-02-11T20:15:21.441Z,67.59
2018-02-11T20:17:49.394Z,66.64
2018-02-11T20:20:17.463Z,66.32
2018-02-11T20:22:46.462Z,66.42
2018-02-11T20:25:14.406Z,65.31
2018-02-11T20:27:42.429Z,65.30
2018-02-11T20:30:10.389Z,64.13
2018-02-11T20:32:38.395Z,65.28
2018-02-11T20:35:06.362Z,65.11
2018-02-11T20:37:34.483Z,67.20
2018-02-11T20:40:02.442Z,67.26
2018-02-11T20:42:30.440Z,67.27
2018-02-11T20:44:58.404Z,66.21
2018-02-11T20:47:26.382Z,67.15
2018-02-11T20:49:54.312Z,66.52
2018-02-11T20:52:22.270Z,66.43
2018-02-11T20:54:50.246Z,66.97
2018-02-11T20:57:18.191Z,65.88
2018-02-11T20:59:46.225Z,67.15
2018-02-11T21:02:14.233Z,67.47
2018-02-11T21:04:42.495Z,67.05
2018-02-11T21:07:10.492Z,66.83
2018-02-11T21:09:38.500Z,64.55
2018-02-11T21:12:06.537Z,64.37
2018-02-11T21:14:34.786Z,65.35
2018-02-11T21:17:02.742Z,64.61
2018-02-11T21:19:30.730Z,66.96
2018-02-11T21:21:58.866Z,67.60
2018-02-11T21:24:26.811Z,68.93
2018-02-11T21:26:54.798Z,68.87
2018-02-11T21:29:22.853Z,67.96
2018-02-11T21:31:51.773Z,67.49
2018-02-11T21:34:19.711Z,67.11
2018-02-11T21:36:47.777Z,66.28
2018-02-11T21:39:15.689Z,66.02
2018-02-11T21:41:43.772Z,67.54
2018-02-11T21:44:11.751Z,68.86
2018-02-11T21:46:39.751Z,67.35
2018-02-11T21:49:07.711Z,67.12
2018-02-11T21:51:35.695Z,68.24
2018-02-11T21:54:03.765Z,67.74
2018-02-11T21:56:31.711Z,68.87
2018-02-11T21:58:59.709Z,66.19
2018-02-11T22:01:27.661Z,67.55
2018-02-11T22:03:55.561Z,66.73
2018-02-11T22:06:24.180Z,66.38
2018-02-11T22:08:52.543Z,64.97
2018-02-11T22:11:21.013Z,65.32
2018-02-11T22:13:49.297Z,67.72
2018-02-11T22:16:17.769Z,69.75
2018-02-11T22:18:46.232Z,70.64
2018-02-11T22:21:14.525Z,69.58
2018-02-11T22:23:42.940Z,68.10
2018-02-11T22:26:11.265Z,67.66
2018-02-11T22:28:39.762Z,70.09
2018-02-11T22:31:08.210Z,70.36
2018-02-11T22:33:36.722Z,69.59
2018-02-11T22:36:05.102Z,68.87
2018-02-11T22:38:33.486Z,67.89
2018-02-11T22:41:02.165Z,68.05
2018-02-11T22:43:30.745Z,67.59
2018-02-11T22:45:58.930Z,68.59
2018-02-11T22:48:27.402Z,69.58
2018-02-11T22:50:55.761Z,67.45
2018-02-11T22:53:24.357Z,69.58
2018-02-11T22:55:52.354Z,69.22
2018-02-11T22:58:20.706Z,69.45
2018-02-11T23:00:48.987Z,68.38
2018-02-11T23:03:17.366Z,69.01
2018-02-11T23:05:45.744Z,67.50
2018-02-11T23:08:14.530Z,68.92
2018-02-11T23:10:42.901Z,69.40
2018-02-11T23:13:11.183Z,68.40
2018-02-11T23:15:39.484Z,68.39
2018-02-11T23:18:07.938Z,67.96
2018-02-11T23:20:36.024Z,67.68
2018-02-11T23:23:04.026Z,66.91
2018-02-11T23:25:31.970Z,66.69
2018-02-11T23:28:00.110Z,66.05
2018-02-11T23:30:28.606Z,66.50
2018-02-11T23:32:57.151Z,66.41
2018-02-11T23:35:25.557Z,66.78
2018-02-11T23:37:53.939Z,67.39
2018-02-11T23:40:22.270Z,67.46
2018-02-11T23:42:50.801Z,67.22
2018-02-11T23:45:19.292Z,66.48
2018-02-11T23:47:47.262Z,65.62
2018-02-11T23:50:15.825Z,64.26
2018-02-11T23:52:44.105Z,64.38
2018-02-11T23:55:12.478Z,65.80
2018-02-11T23:57:40.783Z,67.27
